Time,TemperatureF,DewpointF,PressureIn,WindDirection,WindDirectionDegrees,WindSpeedMPH,WindSpeedGustMPH,Humidity,HourlyPrecipIn,Conditions,Clouds,dailyrainin,SoftwareType,DateUTC
2013-12-09 00:01:00,36.1,35.0,30.22,NE,41,1.0,2.0,96,0.00,,,0.00,WUHU216DAVISVP2,2013-12-09 06:01:00,
2013-12-09 00:06:00,36.0,34.9,30.22,NE,34,0.0,2.0,96,0.00,,,0.00,WUHU216DAVISVP2,2013-12-09 06:06:00,
2013-12-09 00:11:00,36.0,34.9,30.22,East,80,0.0,2.0,96,0.00,,,0.00,WUHU216DAVISVP2,2013-12-09 06:11:00,
2013-12-09 00:16:00,36.1,35.0,30.22,ENE,61,0.0,2.0,96,0.00,,,0.00,WUHU216DAVISVP2,2013-12-09 06:16:00,
2013-12-09 00:21:00,36.1,35.0,30.22,ENE,61,0.0,1.0,96,0.01,,,0.01,WUHU216DAVISVP2,2013-12-09 06:21:00,
2013-12-09 00:26:00,36.1,35.0,30.23,NE,40,0.0,1.0,96,0.01,,,0.01,WUHU216DAVISVP2,2013-12-09 06:26:00,
2013-12-09 00:31:00,36.1,35.0,30.23,ENE,60,0.0,2.0,96,0.01,,,0.01,WUHU216DAVISVP2,2013-12-09 06:31:00,
2013-12-09 00:36:00,36.1,35.0,30.23,NE,56,0.0,2.0,96,0.01,,,0.01,WUHU216DAVISVP2,2013-12-09 06:36:00,
2013-12-09 00:41:00,36.1,35.0,30.23,NE,49,1.0,2.0,96,0.01,,,0.01,WUHU216DAVISVP2,2013-12-09 06:41:00,
2013-12-09 00:46:00,36.1,35.0,30.23,ENE,61,1.0,2.0,96,0.01,,,0.01,WUHU216DAVISVP2,2013-12-09 06:46:00,
2013-12-09 00:51:00,36.1,35.0,30.23,ENE,60,1.0,2.0,96,0.01,,,0.01,WUHU216DAVISVP2,2013-12-09 06:51:00,
2013-12-09 00:56:00,36.0,34.9,30.23,NE,34,0.0,2.0,96,0.01,,,0.01,WUHU216DAVISVP2,2013-12-09 06:56:00,
2013-12-09 01:01:00,36.0,34.9,30.23,ENE,72,0.0,2.0,96,0.01,,,0.01,WUHU216DAVISVP2,2013-12-09 07:01:00,
2013-12-09 01:06:00,36.0,34.9,30.23,NE,39,0.0,2.0,96,0.01,,,0.01,WUHU216DAVISVP2,2013-12-09 07:06:00,
2013-12-09 01:11:00,36.0,34.9,30.23,NE,56,1.0,2.0,96,0.01,,,0.01,WUHU216DAVISVP2,2013-12-09 07:11:00,
2013-12-09 01:17:00,36.0,34.9,30.23,ENE,58,0.0,2.0,96,0.01,,,0.01,WUHU216DAVISVP2,2013-12-09 07:17:00,
2013-12-09 01:22:00,36.1,35.0,30.23,North,7,0.0,2.0,96,0.00,,,0.01,WUHU216DAVISVP2,2013-12-09 07:22:00,
2013-12-09 01:27:00,36.0,34.9,30.23,ENE,59,0.0,2.0,96,0.00,,,0.01,WUHU216DAVISVP2,2013-12-09 07:27:00,
2013-12-09 01:32:00,36.1,35.0,30.23,East,101,0.0,1.0,96,0.00,,,0.01,WUHU216DAVISVP2,2013-12-09 07:32:00,
2013-12-09 01:37:00,36.1,35.0,30.23,NE,52,1.0,2.0,96,0.00,,,0.01,WUHU216DAVISVP2,2013-12-09 07:37:00,
2013-12-09 01:42:00,36.0,34.9,30.23,NE,56,1.0,3.0,96,0.00,,,0.01,WUHU216DAVISVP2,2013-12-09 07:42:00,
2013-12-09 01:47:00,35.9,34.8,30.23,NE,34,0.0,3.0,96,0.00,,,0.01,WUHU216DAVISVP2,2013-12-09 07:47:00,
2013-12-09 01:52:00,36.0,34.9,30.22,ENE,77,0.0,3.0,96,0.00,,,0.01,WUHU216DAVISVP2,2013-12-09 07:52:00,
2013-12-09 01:57:00,36.0,34.9,30.22,North,356,0.0,3.0,96,0.00,,,0.01,WUHU216DAVISVP2,2013-12-09 07:57:00,
2013-12-09 02:02:00,36.0,34.9,30.22,North,356,0.0,3.0,96,0.00,,,0.01,WUHU216DAVISVP2,2013-12-09 08:02:00,
2013-12-09 02:07:00,35.9,34.8,30.23,ENE,68,2.0,2.0,96,0.00,,,0.01,WUHU216DAVISVP2,2013-12-09 08:07:00,
2013-12-09 02:12:00,35.9,34.8,30.23,East,101,0.0,4.0,96,0.00,,,0.01,WUHU216DAVISVP2,2013-12-09 08:12:00,
2013-12-09 02:17:00,35.9,34.8,30.23,North,6,2.0,4.0,96,0.00,,,0.01,WUHU216DAVISVP2,2013-12-09 08:17:00,
2013-12-09 02:22:00,35.9,34.8,30.23,ENE,58,2.0,4.0,96,0.00,,,0.01,WUHU216DAVISVP2,2013-12-09 08:22:00,
2013-12-09 02:27:00,35.8,34.8,30.23,NE,39,0.0,4.0,96,0.00,,,0.01,WUHU216DAVISVP2,2013-12-09 08:27:00,
2013-12-09 02:32:00,35.8,34.8,30.23,ENE,58,0.0,4.0,96,0.00,,,0.01,WUHU216DAVISVP2,2013-12-09 08:32:00,
2013-12-09 02:37:00,35.8,34.5,30.23,East,82,2.0,4.0,95,0.00,,,0.01,WUHU216DAVISVP2,2013-12-09 08:37:00,
2013-12-09 02:42:00,35.9,34.6,30.23,NE,34,1.0,3.0,95,0.00,,,0.01,WUHU216DAVISVP2,2013-12-09 08:42:00,
2013-12-09 02:47:00,35.9,34.6,30.23,ENE,72,1.0,3.0,95,0.00,,,0.01,WUHU216DAVISVP2,2013-12-09 08:47:00,
2013-12-09 02:52:00,35.9,34.6,30.23,North,352,1.0,4.0,95,0.00,,,0.01,WUHU216DAVISVP2,2013-12-09 08:52:00,
2013-12-09 02:57:00,35.9,34.6,30.23,NNE,27,0.0,4.0,95,0.00,,,0.01,WUHU216DAVISVP2,2013-12-09 08:57:00,
2013-12-09 03:09:00,35.9,34.6,30.23,NE,52,1.0,4.0,95,0.00,,,0.01,WUHU216DAVISVP2,2013-12-09 09:09:00,
2013-12-09 03:19:00,35.9,34.6,30.23,ENE,68,3.0,5.0,95,0.00,,,0.01,WUHU216DAVISVP2,2013-12-09 09:19:00,
2013-12-09 03:24:00,35.9,34.6,30.22,ENE,72,1.0,4.0,95,0.00,,,0.01,WUHU216DAVISVP2,2013-12-09 09:24:00,
2013-12-09 03:29:00,35.9,34.6,30.23,WNW,301,2.0,4.0,95,0.00,,,0.01,WUHU216DAVISVP2,2013-12-09 09:29:00,
2013-12-09 03:34:00,35.7,34.1,30.22,ENE,72,1.0,4.0,94,0.00,,,0.01,WUHU216DAVISVP2,2013-12-09 09:34:00,
2013-12-09 03:39:00,35.6,34.0,30.22,ENE,67,4.0,7.0,94,0.00,,,0.01,WUHU216DAVISVP2,2013-12-09 09:39:00,
2013-12-09 03:44:00,35.6,34.0,30.22,ESE,114,3.0,7.0,94,0.00,,,0.01,WUHU216DAVISVP2,2013-12-09 09:44:00,
2013-12-09 03:49:00,35.6,33.7,30.22,ESE,103,2.0,6.0,93,0.00,,,0.01,WUHU216DAVISVP2,2013-12-09 09:49:00,
2013-12-09 03:54:00,35.6,33.7,30.22,ESE,106,2.0,6.0,93,0.00,,,0.01,WUHU216DAVISVP2,2013-12-09 09:54:00,
2013-12-09 03:59:00,35.6,33.7,30.22,NW,304,0.0,6.0,93,0.00,,,0.01,WUHU216DAVISVP2,2013-12-09 09:59:00,
2013-12-09 04:04:00,35.5,33.7,30.22,NNE,16,3.0,5.0,93,0.00,,,0.01,WUHU216DAVISVP2,2013-12-09 10:04:00,
2013-12-09 04:09:00,35.4,33.8,30.22,North,11,3.0,5.0,94,0.00,,,0.01,WUHU216DAVISVP2,2013-12-09 10:09:00,
2013-12-09 04:14:00,35.3,33.5,30.22,ENE,67,0.0,6.0,93,0.00,,,0.01,WUHU216DAVISVP2,2013-12-09 10:14:00,
2013-12-09 04:19:00,35.2,33.6,30.21,NE,46,2.0,6.0,94,0.00,,,0.01,WUHU216DAVISVP2,2013-12-09 10:19:00,
2013-12-09 04:24:00,35.2,33.6,30.21,ENE,68,1.0,6.0,94,0.00,,,0.01,WUHU216DAVISVP2,2013-12-09 10:24:00,
2013-12-09 04:29:00,35.1,33.5,30.21,ENE,69,4.0,5.0,94,0.00,,,0.01,WUHU216DAVISVP2,2013-12-09 10:29:00,
2013-12-09 04:34:00,35.1,33.5,30.21,NE,34,1.0,5.0,94,0.00,,,0.01,WUHU216DAVISVP2,2013-12-09 10:34:00,
2013-12-09 04:39:00,35.0,33.4,30.21,ENE,63,4.0,5.0,94,0.00,,,0.01,WUHU216DAVISVP2,2013-12-09 10:39:00,
2013-12-09 04:44:00,35.1,33.5,30.21,ENE,70,1.0,5.0,94,0.00,,,0.01,WUHU216DAVISVP2,2013-12-09 10:44:00,
2013-12-09 04:49:00,35.1,33.5,30.20,ENE,72,4.0,5.0,94,0.00,,,0.01,WUHU216DAVISVP2,2013-12-09 10:49:00,
2013-12-09 04:54:00,35.2,33.6,30.20,ENE,73,1.0,5.0,94,0.00,,,0.01,WUHU216DAVISVP2,2013-12-09 10:54:00,
2013-12-09 04:59:00,35.2,33.6,30.20,ENE,69,5.0,7.0,94,0.00,,,0.01,WUHU216DAVISVP2,2013-12-09 10:59:00,
2013-12-09 05:04:00,35.0,33.2,30.20,ENE,70,3.0,8.0,93,0.00,,,0.01,WUHU216DAVISVP2,2013-12-09 11:04:00,
2013-12-09 05:09:00,34.9,33.1,30.20,East,94,2.0,8.0,93,0.00,,,0.01,WUHU216DAVISVP2,2013-12-09 11:09:00,
2013-12-09 05:14:00,34.9,33.1,30.20,ENE,77,2.0,8.0,93,0.00,,,0.01,WUHU216DAVISVP2,2013-12-09 11:14:00,
2013-12-09 05:19:00,34.9,33.3,30.20,ENE,62,1.0,7.0,94,0.00,,,0.01,WUHU216DAVISVP2,2013-12-09 11:19:00,
2013-12-09 05:24:00,34.9,33.3,30.21,NE,51,2.0,6.0,94,0.00,,,0.01,WUHU216DAVISVP2,2013-12-09 11:24:00,
2013-12-09 05:29:00,34.9,33.1,30.22,ENE,77,1.0,6.0,93,0.00,,,0.01,WUHU216DAVISVP2,2013-12-09 11:29:00,
2013-12-09 05:34:00,34.8,33.0,30.22,NE,44,2.0,5.0,93,0.00,,,0.01,WUHU216DAVISVP2,2013-12-09 11:34:00,
2013-12-09 05:39:00,34.8,33.2,30.22,ENE,71,4.0,7.0,94,0.00,,,0.01,WUHU216DAVISVP2,2013-12-09 11:39:00,
2013-12-09 05:44:00,34.8,33.0,30.22,ENE,68,3.0,7.0,93,0.00,,,0.01,WUHU216DAVISVP2,2013-12-09 11:44:00,
2013-12-09 05:49:00,34.8,33.2,30.23,ENE,62,3.0,7.0,94,0.00,,,0.01,WUHU216DAVISVP2,2013-12-09 11:49:00,
2013-12-09 05:54:00,34.8,33.0,30.23,ENE,72,1.0,6.0,93,0.00,,,0.01,WUHU216DAVISVP2,2013-12-09 11:54:00,
2013-12-09 05:59:00,34.7,32.8,30.22,East,91,6.0,6.0,93,0.00,,,0.01,WUHU216DAVISVP2,2013-12-09 11:59:00,
2013-12-09 06:04:00,34.6,32.8,30.23,ENE,71,2.0,6.0,93,0.00,,,0.01,WUHU216DAVISVP2,2013-12-09 12:04:00,
2013-12-09 06:09:00,34.5,32.6,30.23,NE,52,2.0,6.0,93,0.00,,,0.01,WUHU216DAVISVP2,2013-12-09 12:09:00,
2013-12-09 06:14:00,34.5,32.6,30.23,ENE,67,1.0,7.0,93,0.00,,,0.01,WUHU216DAVISVP2,2013-12-09 12:14:00,
2013-12-09 06:19:00,34.4,32.6,30.23,ESE,107,1.0,7.0,93,0.00,,,0.01,WUHU216DAVISVP2,2013-12-09 12:19:00,
2013-12-09 06:24:00,34.4,32.5,30.23,North,356,0.0,6.0,93,0.00,,,0.01,WUHU216DAVISVP2,2013-12-09 12:24:00,
2013-12-09 06:29:00,34.4,32.5,30.24,NNE,20,1.0,6.0,93,0.00,,,0.01,WUHU216DAVISVP2,2013-12-09 12:29:00,
2013-12-09 06:34:00,34.3,32.4,30.24,NNE,22,2.0,6.0,93,0.00,,,0.01,WUHU216DAVISVP2,2013-12-09 12:34:00,
2013-12-09 06:39:00,34.3,32.4,30.25,ENE,78,1.0,6.0,93,0.00,,,0.01,WUHU216DAVISVP2,2013-12-09 12:39:00,
2013-12-09 06:44:00,34.2,32.3,30.25,ENE,65,1.0,6.0,93,0.00,,,0.01,WUHU216DAVISVP2,2013-12-09 12:44:00,
2013-12-09 06:49:00,34.1,32.2,30.26,NE,48,3.0,5.0,93,0.00,,,0.01,WUHU216DAVISVP2,2013-12-09 12:49:00,
2013-12-09 06:54:00,34.0,31.9,30.25,NNE,29,1.0,6.0,92,0.00,,,0.01,WUHU216DAVISVP2,2013-12-09 12:54:00,
2013-12-09 06:59:00,34.0,32.1,30.26,East,84,1.0,6.0,93,0.00,,,0.01,WUHU216DAVISVP2,2013-12-09 12:59:00,
2013-12-09 07:04:00,34.1,32.2,30.26,NE,56,0.0,5.0,93,0.00,,,0.01,WUHU216DAVISVP2,2013-12-09 13:04:00,
2013-12-09 07:09:00,34.1,32.0,30.26,ENE,68,1.0,5.0,92,0.00,,,0.01,WUHU216DAVISVP2,2013-12-09 13:09:00,
2013-12-09 07:14:00,34.0,31.9,30.26,East,101,0.0,6.0,92,0.00,,,0.01,WUHU216DAVISVP2,2013-12-09 13:14:00,
2013-12-09 07:19:00,34.0,31.9,30.27,ENE,72,0.0,6.0,92,0.00,,,0.01,WUHU216DAVISVP2,2013-12-09 13:19:00,
2013-12-09 07:24:00,34.1,32.0,30.28,North,353,1.0,6.0,92,0.00,,,0.01,WUHU216DAVISVP2,2013-12-09 13:24:00,
2013-12-09 07:29:00,34.0,31.9,30.28,NE,37,0.0,6.0,92,0.00,,,0.01,WUHU216DAVISVP2,2013-12-09 13:29:00,
2013-12-09 07:34:00,34.0,31.9,30.28,NW,316,0.0,4.0,92,0.00,,,0.01,WUHU216DAVISVP2,2013-12-09 13:34:00,
2013-12-09 07:39:00,34.0,31.9,30.28,ENE,72,1.0,4.0,92,0.00,,,0.01,WUHU216DAVISVP2,2013-12-09 13:39:00,
2013-12-09 07:44:00,34.1,32.2,30.28,East,82,2.0,4.0,93,0.00,,,0.01,WUHU216DAVISVP2,2013-12-09 13:44:00,
2013-12-09 07:49:00,34.1,32.2,30.28,East,95,1.0,3.0,93,0.00,,,0.01,WUHU216DAVISVP2,2013-12-09 13:49:00,
2013-12-09 07:54:00,34.1,32.2,30.29,ENE,60,0.0,3.0,93,0.00,,,0.01,WUHU216DAVISVP2,2013-12-09 13:54:00,
2013-12-09 07:59:00,34.1,32.2,30.29,ENE,58,1.0,3.0,93,0.00,,,0.01,WUHU216DAVISVP2,2013-12-09 13:59:00,
2013-12-09 08:04:00,34.1,32.2,30.30,East,84,1.0,2.0,93,0.00,,,0.01,WUHU216DAVISVP2,2013-12-09 14:04:00,
2013-12-09 08:09:00,34.2,32.3,30.30,East,82,1.0,2.0,93,0.00,,,0.01,WUHU216DAVISVP2,2013-12-09 14:09:00,
2013-12-09 08:14:00,34.3,32.4,30.30,East,99,0.0,3.0,93,0.00,,,0.01,WUHU216DAVISVP2,2013-12-09 14:14:00,
2013-12-09 08:19:00,34.3,32.4,30.30,ESE,107,4.0,5.0,93,0.00,,,0.01,WUHU216DAVISVP2,2013-12-09 14:19:00,
2013-12-09 08:24:00,34.1,32.2,30.30,ENE,72,2.0,6.0,93,0.00,,,0.01,WUHU216DAVISVP2,2013-12-09 14:24:00,
2013-12-09 08:29:00,34.0,32.1,30.30,ENE,62,2.0,6.0,93,0.00,,,0.01,WUHU216DAVISVP2,2013-12-09 14:29:00,
2013-12-09 08:34:00,34.0,32.1,30.31,NNE,22,2.0,5.0,93,0.00,,,0.01,WUHU216DAVISVP2,2013-12-09 14:34:00,
2013-12-09 08:39:00,34.0,32.1,30.32,NE,46,2.0,5.0,93,0.00,,,0.01,WUHU216DAVISVP2,2013-12-09 14:39:00,
2013-12-09 08:44:00,34.1,32.2,30.32,ENE,58,1.0,4.0,93,0.00,,,0.01,WUHU216DAVISVP2,2013-12-09 14:44:00,
2013-12-09 08:49:00,34.0,32.1,30.33,NW,307,0.0,3.0,93,0.00,,,0.01,WUHU216DAVISVP2,2013-12-09 14:49:00,
2013-12-09 08:54:00,34.1,32.2,30.33,NE,37,2.0,3.0,93,0.00,,,0.01,WUHU216DAVISVP2,2013-12-09 14:54:00,
2013-12-09 08:59:00,34.0,32.1,30.32,ENE,63,0.0,3.0,93,0.00,,,0.01,WUHU216DAVISVP2,2013-12-09 14:59:00,
2013-12-09 09:04:00,34.0,32.1,30.33,NNW,328,2.0,3.0,93,0.00,,,0.01,WUHU216DAVISVP2,2013-12-09 15:04:00,
2013-12-09 09:09:00,34.0,32.1,30.32,North,352,1.0,4.0,93,0.00,,,0.01,WUHU216DAVISVP2,2013-12-09 15:09:00,
2013-12-09 09:14:00,34.0,32.1,30.33,NW,325,0.0,4.0,93,0.00,,,0.01,WUHU216DAVISVP2,2013-12-09 15:14:00,
2013-12-09 09:19:00,33.9,32.0,30.33,ESE,107,3.0,4.0,93,0.00,,,0.01,WUHU216DAVISVP2,2013-12-09 15:19:00,
2013-12-09 09:24:00,33.8,31.9,30.33,NNE,22,3.0,5.0,93,0.00,,,0.01,WUHU216DAVISVP2,2013-12-09 15:24:00,
2013-12-09 09:29:00,33.8,31.9,30.32,ENE,77,2.0,5.0,93,0.00,,,0.01,WUHU216DAVISVP2,2013-12-09 15:29:00,
2013-12-09 09:34:00,33.7,31.8,30.32,ENE,64,5.0,5.0,93,0.00,,,0.01,WUHU216DAVISVP2,2013-12-09 15:34:00,
2013-12-09 09:39:00,33.6,31.7,30.32,ENE,72,4.0,6.0,93,0.00,,,0.01,WUHU216DAVISVP2,2013-12-09 15:39:00,
2013-12-09 09:44:00,33.6,31.7,30.32,NNE,15,1.0,8.0,93,0.00,,,0.01,WUHU216DAVISVP2,2013-12-09 15:44:00,
2013-12-09 09:49:00,33.5,31.6,30.32,ENE,61,1.0,8.0,93,0.00,,,0.01,WUHU216DAVISVP2,2013-12-09 15:49:00,
2013-12-09 09:54:00,33.6,31.7,30.32,ENE,68,4.0,7.0,93,0.00,,,0.01,WUHU216DAVISVP2,2013-12-09 15:54:00,
2013-12-09 09:59:00,33.5,31.4,30.32,ENE,72,4.0,8.0,92,0.00,,,0.01,WUHU216DAVISVP2,2013-12-09 15:59:00,
2013-12-09 10:04:00,33.3,31.2,30.32,ENE,60,2.0,8.0,92,0.00,,,0.01,WUHU216DAVISVP2,2013-12-09 16:04:00,
2013-12-09 10:09:00,33.4,31.5,30.32,East,94,5.0,8.0,93,0.00,,,0.01,WUHU216DAVISVP2,2013-12-09 16:09:00,
2013-12-09 10:14:00,33.5,31.6,30.32,East,80,4.0,8.0,93,0.00,,,0.01,WUHU216DAVISVP2,2013-12-09 16:14:00,
2013-12-09 10:19:00,33.6,31.7,30.31,ENE,64,5.0,6.0,93,0.00,,,0.01,WUHU216DAVISVP2,2013-12-09 16:19:00,
2013-12-09 10:24:00,33.5,31.4,30.31,NE,46,3.0,6.0,92,0.00,,,0.01,WUHU216DAVISVP2,2013-12-09 16:24:00,
2013-12-09 10:29:00,33.6,31.7,30.31,East,84,1.0,6.0,93,0.00,,,0.01,WUHU216DAVISVP2,2013-12-09 16:29:00,
2013-12-09 10:34:00,33.6,31.5,30.31,ENE,68,2.0,5.0,92,0.00,,,0.01,WUHU216DAVISVP2,2013-12-09 16:34:00,
2013-12-09 10:39:00,33.7,31.6,30.31,ENE,74,3.0,5.0,92,0.00,,,0.01,WUHU216DAVISVP2,2013-12-09 16:39:00,
2013-12-09 10:44:00,33.7,31.6,30.31,ENE,63,2.0,5.0,92,0.00,,,0.01,WUHU216DAVISVP2,2013-12-09 16:44:00,
2013-12-09 10:49:00,33.7,31.6,30.30,East,88,2.0,5.0,92,0.00,,,0.01,WUHU216DAVISVP2,2013-12-09 16:49:00,
2013-12-09 10:54:00,33.7,31.6,30.31,ESE,107,2.0,5.0,92,0.00,,,0.01,WUHU216DAVISVP2,2013-12-09 16:54:00,
2013-12-09 10:59:00,33.9,32.0,30.31,ENE,77,3.0,6.0,93,0.00,,,0.01,WUHU216DAVISVP2,2013-12-09 16:59:00,
2013-12-09 11:04:00,34.0,32.1,30.31,ENE,70,4.0,6.0,93,0.00,,,0.01,WUHU216DAVISVP2,2013-12-09 17:04:00,
2013-12-09 11:09:00,34.0,32.1,30.31,East,101,1.0,6.0,93,0.00,,,0.01,WUHU216DAVISVP2,2013-12-09 17:09:00,
2013-12-09 11:14:00,34.2,32.3,30.31,ENE,70,1.0,5.0,93,0.00,,,0.01,WUHU216DAVISVP2,2013-12-09 17:14:00,
2013-12-09 11:19:00,34.3,32.4,30.30,ENE,75,2.0,4.0,93,0.00,,,0.01,WUHU216DAVISVP2,2013-12-09 17:19:00,
2013-12-09 11:24:00,34.3,32.2,30.31,ENE,60,1.0,4.0,92,0.00,,,0.01,WUHU216DAVISVP2,2013-12-09 17:24:00,
2013-12-09 11:29:00,34.3,32.2,30.30,ENE,60,9.0,9.0,92,0.00,,,0.01,WUHU216DAVISVP2,2013-12-09 17:29:00,
2013-12-09 11:34:00,34.2,31.8,30.30,ENE,72,2.0,9.0,91,0.00,,,0.01,WUHU216DAVISVP2,2013-12-09 17:34:00,
2013-12-09 11:39:00,34.3,32.2,30.30,East,84,3.0,9.0,92,0.00,,,0.01,WUHU216DAVISVP2,2013-12-09 17:39:00,
2013-12-09 11:44:00,34.2,32.1,30.29,ENE,59,8.0,9.0,92,0.00,,,0.01,WUHU216DAVISVP2,2013-12-09 17:44:00,
2013-12-09 11:49:00,34.2,32.1,30.29,ENE,65,4.0,9.0,92,0.00,,,0.01,WUHU216DAVISVP2,2013-12-09 17:49:00,
2013-12-09 11:54:00,34.3,32.2,30.29,ENE,68,6.0,9.0,92,0.00,,,0.01,WUHU216DAVISVP2,2013-12-09 17:54:00,
2013-12-09 11:59:00,34.4,32.3,30.28,NE,46,2.0,8.0,92,0.00,,,0.01,WUHU216DAVISVP2,2013-12-09 17:59:00,
2013-12-09 12:04:00,34.3,32.2,30.28,East,80,4.0,8.0,92,0.00,,,0.01,WUHU216DAVISVP2,2013-12-09 18:04:00,
2013-12-09 12:09:00,34.3,31.9,30.27,East,101,3.0,8.0,91,0.00,,,0.01,WUHU216DAVISVP2,2013-12-09 18:09:00,
2013-12-09 12:14:00,34.2,32.1,30.27,East,84,6.0,9.0,92,0.00,,,0.01,WUHU216DAVISVP2,2013-12-09 18:14:00,
2013-12-09 12:19:00,34.1,32.0,30.27,ESE,110,5.0,10.0,92,0.00,,,0.01,WUHU216DAVISVP2,2013-12-09 18:19:00,
2013-12-09 12:24:00,34.1,32.0,30.26,East,82,4.0,10.0,92,0.00,,,0.01,WUHU216DAVISVP2,2013-12-09 18:24:00,
2013-12-09 12:29:00,34.1,32.0,30.26,ENE,68,5.0,9.0,92,0.00,,,0.01,WUHU216DAVISVP2,2013-12-09 18:29:00,
2013-12-09 12:34:00,34.0,31.9,30.26,ESE,105,3.0,9.0,92,0.00,,,0.01,WUHU216DAVISVP2,2013-12-09 18:34:00,
2013-12-09 12:39:00,33.9,31.8,30.25,ENE,72,6.0,9.0,92,0.00,,,0.01,WUHU216DAVISVP2,2013-12-09 18:39:00,
2013-12-09 12:44:00,33.8,31.7,30.25,ENE,61,8.0,9.0,92,0.00,,,0.01,WUHU216DAVISVP2,2013-12-09 18:44:00,
2013-12-09 12:49:00,33.7,31.6,30.25,East,91,5.0,10.0,92,0.00,,,0.01,WUHU216DAVISVP2,2013-12-09 18:49:00,
2013-12-09 12:54:00,33.5,31.4,30.25,East,79,5.0,10.0,92,0.00,,,0.01,WUHU216DAVISVP2,2013-12-09 18:54:00,
2013-12-09 12:59:00,33.4,31.3,30.24,ENE,64,6.0,9.0,92,0.00,,,0.01,WUHU216DAVISVP2,2013-12-09 18:59:00,
2013-12-09 13:04:00,33.4,31.3,30.24,ENE,73,4.0,8.0,92,0.00,,,0.01,WUHU216DAVISVP2,2013-12-09 19:04:00,
2013-12-09 13:09:00,33.3,31.2,30.24,East,101,3.0,8.0,92,0.00,,,0.01,WUHU216DAVISVP2,2013-12-09 19:09:00,
2013-12-09 13:14:00,33.3,31.2,30.24,NE,56,5.0,7.0,92,0.00,,,0.01,WUHU216DAVISVP2,2013-12-09 19:14:00,
2013-12-09 13:19:00,33.3,31.2,30.24,ENE,73,1.0,7.0,92,0.00,,,0.01,WUHU216DAVISVP2,2013-12-09 19:19:00,
2013-12-09 13:24:00,33.2,31.1,30.24,East,80,2.0,10.0,92,0.00,,,0.01,WUHU216DAVISVP2,2013-12-09 19:24:00,
2013-12-09 13:29:00,33.1,31.0,30.24,ESE,108,3.0,10.0,92,0.00,,,0.01,WUHU216DAVISVP2,2013-12-09 19:29:00,
2013-12-09 13:34:00,33.2,31.1,30.24,East,84,2.0,9.0,92,0.00,,,0.01,WUHU216DAVISVP2,2013-12-09 19:34:00,
2013-12-09 13:40:00,33.3,31.2,30.24,East,84,4.0,9.0,92,0.00,,,0.01,WUHU216DAVISVP2,2013-12-09 19:40:00,
2013-12-09 13:45:00,33.2,31.1,30.23,NNE,32,6.0,8.0,92,0.00,,,0.01,WUHU216DAVISVP2,2013-12-09 19:45:00,
2013-12-09 13:50:00,33.3,31.2,30.23,NE,56,3.0,7.0,92,0.00,,,0.01,WUHU216DAVISVP2,2013-12-09 19:50:00,
2013-12-09 13:55:00,33.3,31.2,30.23,ENE,70,7.0,9.0,92,0.00,,,0.01,WUHU216DAVISVP2,2013-12-09 19:55:00,
2013-12-09 14:00:00,33.4,31.3,30.22,East,91,5.0,9.0,92,0.00,,,0.01,WUHU216DAVISVP2,2013-12-09 20:00:00,
2013-12-09 14:05:00,33.5,31.4,30.22,ENE,58,7.0,8.0,92,0.00,,,0.01,WUHU216DAVISVP2,2013-12-09 20:05:00,
2013-12-09 14:10:00,33.3,31.2,30.22,NE,56,6.0,9.0,92,0.00,,,0.01,WUHU216DAVISVP2,2013-12-09 20:10:00,
2013-12-09 14:15:00,33.3,31.2,30.21,ENE,68,4.0,9.0,92,0.00,,,0.01,WUHU216DAVISVP2,2013-12-09 20:15:00,
2013-12-09 14:20:00,33.3,31.2,30.20,East,96,3.0,8.0,92,0.00,,,0.01,WUHU216DAVISVP2,2013-12-09 20:20:00,
2013-12-09 14:25:00,33.5,31.4,30.22,ESE,113,1.0,9.0,92,0.00,,,0.01,WUHU216DAVISVP2,2013-12-09 20:25:00,
2013-12-09 14:30:00,33.5,31.4,30.22,ENE,75,4.0,9.0,92,0.00,,,0.01,WUHU216DAVISVP2,2013-12-09 20:30:00,
2013-12-09 14:35:00,33.4,31.3,30.22,ENE,78,3.0,9.0,92,0.00,,,0.01,WUHU216DAVISVP2,2013-12-09 20:35:00,
2013-12-09 14:40:00,33.4,31.3,30.22,ENE,63,5.0,9.0,92,0.00,,,0.01,WUHU216DAVISVP2,2013-12-09 20:40:00,
2013-12-09 14:45:00,33.4,31.3,30.22,ENE,68,2.0,8.0,92,0.00,,,0.01,WUHU216DAVISVP2,2013-12-09 20:45:00,
2013-12-09 14:50:00,33.5,31.4,30.22,ENE,68,4.0,8.0,92,0.00,,,0.01,WUHU216DAVISVP2,2013-12-09 20:50:00,
2013-12-09 14:55:00,33.7,31.6,30.23,ENE,72,3.0,7.0,92,0.00,,,0.01,WUHU216DAVISVP2,2013-12-09 20:55:00,
2013-12-09 15:00:00,33.7,31.6,30.23,ENE,75,6.0,7.0,92,0.00,,,0.01,WUHU216DAVISVP2,2013-12-09 21:00:00,
2013-12-09 15:05:00,33.8,31.7,30.22,ENE,75,3.0,7.0,92,0.00,,,0.01,WUHU216DAVISVP2,2013-12-09 21:05:00,
2013-12-09 15:10:00,33.7,31.6,30.22,NE,56,6.0,7.0,92,0.00,,,0.01,WUHU216DAVISVP2,2013-12-09 21:10:00,
2013-12-09 15:15:00,33.8,31.7,30.23,East,84,3.0,7.0,92,0.00,,,0.01,WUHU216DAVISVP2,2013-12-09 21:15:00,
2013-12-09 15:20:00,33.7,31.6,30.23,East,101,5.0,9.0,92,0.00,,,0.01,WUHU216DAVISVP2,2013-12-09 21:20:00,
2013-12-09 15:25:00,33.7,31.6,30.22,ENE,65,4.0,9.0,92,0.00,,,0.01,WUHU216DAVISVP2,2013-12-09 21:25:00,
2013-12-09 15:30:00,33.7,31.8,30.22,ENE,71,0.0,8.0,93,0.00,,,0.01,WUHU216DAVISVP2,2013-12-09 21:30:00,
2013-12-09 15:35:00,33.6,31.7,30.22,East,101,4.0,8.0,93,0.00,,,0.01,WUHU216DAVISVP2,2013-12-09 21:35:00,
2013-12-09 15:40:00,33.5,31.6,30.21,East,86,4.0,8.0,93,0.00,,,0.01,WUHU216DAVISVP2,2013-12-09 21:40:00,
2013-12-09 15:45:00,33.4,31.5,30.22,East,94,0.0,7.0,93,0.00,,,0.01,WUHU216DAVISVP2,2013-12-09 21:45:00,
2013-12-09 15:50:00,33.3,31.7,30.23,East,84,2.0,7.0,94,0.00,,,0.01,WUHU216DAVISVP2,2013-12-09 21:50:00,
2013-12-09 15:55:00,33.4,31.8,30.24,West,264,0.0,7.0,94,0.00,,,0.01,WUHU216DAVISVP2,2013-12-09 21:55:00,
2013-12-09 16:00:00,33.3,31.7,30.24,East,88,1.0,6.0,94,0.00,,,0.01,WUHU216DAVISVP2,2013-12-09 22:00:00,
2013-12-09 16:05:00,33.3,31.7,30.25,ENE,72,0.0,6.0,94,0.00,,,0.01,WUHU216DAVISVP2,2013-12-09 22:05:00,
2013-12-09 16:10:00,33.4,31.8,30.25,North,8,0.0,4.0,94,0.00,,,0.01,WUHU216DAVISVP2,2013-12-09 22:10:00,
2013-12-09 16:15:00,33.4,31.8,30.25,ENE,58,0.0,4.0,94,0.00,,,0.01,WUHU216DAVISVP2,2013-12-09 22:15:00,
2013-12-09 16:20:00,33.4,31.8,30.26,NW,326,0.0,3.0,94,0.00,,,0.01,WUHU216DAVISVP2,2013-12-09 22:20:00,
2013-12-09 16:25:00,33.4,31.8,30.27,West,260,0.0,2.0,94,0.00,,,0.01,WUHU216DAVISVP2,2013-12-09 22:25:00,
2013-12-09 16:30:00,33.4,31.8,30.26,WNW,297,0.0,2.0,94,0.01,,,0.02,WUHU216DAVISVP2,2013-12-09 22:30:00,
2013-12-09 16:35:00,33.4,31.8,30.27,WNW,297,0.0,2.0,94,0.01,,,0.02,WUHU216DAVISVP2,2013-12-09 22:35:00,
2013-12-09 16:40:00,33.4,31.8,30.27,NW,316,0.0,1.0,94,0.01,,,0.02,WUHU216DAVISVP2,2013-12-09 22:40:00,
2013-12-09 16:45:00,33.4,32.1,30.27,NW,316,0.0,1.0,95,0.01,,,0.02,WUHU216DAVISVP2,2013-12-09 22:45:00,
2013-12-09 16:50:00,33.5,32.2,30.28,West,260,0.0,1.0,95,0.01,,,0.02,WUHU216DAVISVP2,2013-12-09 22:50:00,
2013-12-09 16:55:00,33.5,32.2,30.27,North,8,0.0,1.0,95,0.01,,,0.02,WUHU216DAVISVP2,2013-12-09 22:55:00,
2013-12-09 17:00:00,33.5,32.2,30.27,North,4,0.0,1.0,95,0.03,,,0.04,WUHU216DAVISVP2,2013-12-09 23:00:00,
2013-12-09 17:05:00,33.4,32.1,30.27,North,359,0.0,2.0,95,0.07,,,0.08,WUHU216DAVISVP2,2013-12-09 23:05:00,
2013-12-09 17:10:00,33.3,32.0,30.26,North,8,0.0,2.0,95,0.08,,,0.09,WUHU216DAVISVP2,2013-12-09 23:10:00,
2013-12-09 17:15:00,33.3,32.0,30.27,North,11,0.0,2.0,95,0.08,,,0.09,WUHU216DAVISVP2,2013-12-09 23:15:00,
2013-12-09 17:20:00,33.3,32.0,30.27,NNE,30,0.0,2.0,95,0.09,,,0.10,WUHU216DAVISVP2,2013-12-09 23:20:00,
2013-12-09 17:25:00,33.3,32.0,30.27,NNE,30,0.0,2.0,95,0.09,,,0.10,WUHU216DAVISVP2,2013-12-09 23:25:00,
2013-12-09 17:30:00,33.3,32.0,30.27,NE,47,0.0,2.0,95,0.08,,,0.10,WUHU216DAVISVP2,2013-12-09 23:30:00,
2013-12-09 17:35:00,33.2,31.9,30.28,NNE,22,0.0,1.0,95,0.09,,,0.11,WUHU216DAVISVP2,2013-12-09 23:35:00,
2013-12-09 17:40:00,33.2,31.9,30.28,NNE,26,0.0,1.0,95,0.09,,,0.11,WUHU216DAVISVP2,2013-12-09 23:40:00,
2013-12-09 17:45:00,33.2,31.9,30.29,North,351,0.0,1.0,95,0.10,,,0.12,WUHU216DAVISVP2,2013-12-09 23:45:00,
2013-12-09 17:50:00,33.2,31.9,30.29,North,352,0.0,1.0,95,0.10,,,0.12,WUHU216DAVISVP2,2013-12-09 23:50:00,
2013-12-09 17:55:00,33.2,32.2,30.29,ENE,69,0.0,1.0,96,0.10,,,0.12,WUHU216DAVISVP2,2013-12-09 23:55:00,
2013-12-09 18:00:00,33.2,32.2,30.29,NE,42,0.0,1.0,96,0.08,,,0.12,WUHU216DAVISVP2,2013-12-10 00:00:00,
2013-12-09 18:05:00,33.3,32.3,30.29,NNE,15,0.0,1.0,96,0.04,,,0.12,WUHU216DAVISVP2,2013-12-10 00:05:00,
2013-12-09 18:10:00,33.3,32.3,30.30,East,82,0.0,1.0,96,0.03,,,0.12,WUHU216DAVISVP2,2013-12-10 00:10:00,
2013-12-09 18:15:00,33.2,32.2,30.30,ENE,75,0.0,1.0,96,0.03,,,0.12,WUHU216DAVISVP2,2013-12-10 00:15:00,
2013-12-09 18:20:00,33.3,32.3,30.30,ENE,72,0.0,1.0,96,0.02,,,0.12,WUHU216DAVISVP2,2013-12-10 00:20:00,
2013-12-09 18:25:00,33.3,32.2,30.30,East,91,0.0,1.0,96,0.02,,,0.12,WUHU216DAVISVP2,2013-12-10 00:25:00,
2013-12-09 18:30:00,33.3,32.2,30.30,ENE,61,0.0,2.0,96,0.02,,,0.12,WUHU216DAVISVP2,2013-12-10 00:30:00,
2013-12-09 18:35:00,33.3,32.2,30.30,ENE,63,0.0,2.0,96,0.01,,,0.12,WUHU216DAVISVP2,2013-12-10 00:35:00,
2013-12-09 18:40:00,33.3,32.2,30.30,ENE,63,0.0,2.0,96,0.01,,,0.12,WUHU216DAVISVP2,2013-12-10 00:40:00,
2013-12-09 18:45:00,33.2,32.1,30.31,North,356,0.0,1.0,96,0.00,,,0.12,WUHU216DAVISVP2,2013-12-10 00:45:00,
2013-12-09 18:50:00,33.3,32.2,30.30,NNE,30,0.0,1.0,96,0.00,,,0.12,WUHU216DAVISVP2,2013-12-10 00:50:00,
2013-12-09 18:55:00,33.3,32.2,30.31,ENE,65,0.0,1.0,96,0.00,,,0.12,WUHU216DAVISVP2,2013-12-10 00:55:00,
2013-12-09 19:00:00,33.3,32.2,30.31,ENE,60,2.0,2.0,96,0.00,,,0.12,WUHU216DAVISVP2,2013-12-10 01:00:00,
2013-12-09 19:05:00,33.3,32.2,30.31,East,98,1.0,2.0,96,0.00,,,0.12,WUHU216DAVISVP2,2013-12-10 01:05:00,
2013-12-09 19:10:00,33.2,32.1,30.31,ENE,72,1.0,2.0,96,0.00,,,0.12,WUHU216DAVISVP2,2013-12-10 01:10:00,
2013-12-09 19:15:00,33.1,32.0,30.31,NNE,19,0.0,2.0,96,0.00,,,0.12,WUHU216DAVISVP2,2013-12-10 01:15:00,
2013-12-09 19:20:00,33.2,32.1,30.31,NNE,20,0.0,2.0,96,0.00,,,0.12,WUHU216DAVISVP2,2013-12-10 01:20:00,
2013-12-09 19:25:00,33.3,32.2,30.31,NE,52,0.0,2.0,96,0.00,,,0.12,WUHU216DAVISVP2,2013-12-10 01:25:00,
2013-12-09 19:30:00,33.2,32.1,30.32,NE,39,0.0,1.0,96,0.00,,,0.12,WUHU216DAVISVP2,2013-12-10 01:30:00,
2013-12-09 19:35:00,33.3,32.2,30.31,NE,40,0.0,2.0,96,0.00,,,0.12,WUHU216DAVISVP2,2013-12-10 01:35:00,
2013-12-09 19:40:00,33.3,32.2,30.32,East,84,0.0,2.0,96,0.00,,,0.12,WUHU216DAVISVP2,2013-12-10 01:40:00,
2013-12-09 19:45:00,33.3,32.2,30.32,NNE,29,0.0,3.0,96,0.00,,,0.12,WUHU216DAVISVP2,2013-12-10 01:45:00,
2013-12-09 19:50:00,33.3,32.2,30.32,NE,34,0.0,3.0,96,0.00,,,0.12,WUHU216DAVISVP2,2013-12-10 01:50:00,
2013-12-09 19:55:00,33.2,32.1,30.33,NE,44,0.0,3.0,96,0.00,,,0.12,WUHU216DAVISVP2,2013-12-10 01:55:00,
2013-12-09 20:00:00,33.2,32.1,30.33,NNE,29,0.0,3.0,96,0.00,,,0.12,WUHU216DAVISVP2,2013-12-10 02:00:00,
2013-12-09 20:05:00,33.2,31.9,30.33,NNE,24,0.0,3.0,95,0.00,,,0.12,WUHU216DAVISVP2,2013-12-10 02:05:00,
2013-12-09 20:10:00,33.3,32.2,30.34,NW,309,0.0,3.0,96,0.00,,,0.12,WUHU216DAVISVP2,2013-12-10 02:10:00,
2013-12-09 20:15:00,33.3,32.2,30.34,NE,37,0.0,4.0,96,0.00,,,0.12,WUHU216DAVISVP2,2013-12-10 02:15:00,
2013-12-09 20:20:00,33.2,31.9,30.34,NNE,27,0.0,4.0,95,0.00,,,0.12,WUHU216DAVISVP2,2013-12-10 02:20:00,
2013-12-09 20:25:00,33.2,32.1,30.33,WNW,298,0.0,3.0,96,0.00,,,0.12,WUHU216DAVISVP2,2013-12-10 02:25:00,
2013-12-09 20:30:00,33.2,31.9,30.34,WNW,294,0.0,3.0,95,0.00,,,0.12,WUHU216DAVISVP2,2013-12-10 02:30:00,
2013-12-09 20:35:00,33.2,32.1,30.34,NNE,22,2.0,3.0,96,0.00,,,0.12,WUHU216DAVISVP2,2013-12-10 02:35:00,
2013-12-09 20:40:00,33.2,32.1,30.34,NNW,328,0.0,3.0,96,0.00,,,0.12,WUHU216DAVISVP2,2013-12-10 02:40:00,
2013-12-09 20:45:00,33.2,32.1,30.34,NW,320,0.0,2.0,96,0.00,,,0.12,WUHU216DAVISVP2,2013-12-10 02:45:00,
2013-12-09 20:50:00,33.2,31.9,30.34,NW,321,0.0,2.0,95,0.00,,,0.12,WUHU216DAVISVP2,2013-12-10 02:50:00,
2013-12-09 20:55:00,33.2,31.9,30.35,NNW,328,0.0,3.0,95,0.00,,,0.12,WUHU216DAVISVP2,2013-12-10 02:55:00,
2013-12-09 21:00:00,33.2,31.9,30.35,NW,317,0.0,4.0,95,0.00,,,0.12,WUHU216DAVISVP2,2013-12-10 03:00:00,
2013-12-09 21:05:00,33.3,32.2,30.35,NW,314,3.0,4.0,96,0.00,,,0.12,WUHU216DAVISVP2,2013-12-10 03:05:00,
2013-12-09 21:10:00,33.1,31.8,30.35,NNW,333,0.0,4.0,95,0.00,,,0.12,WUHU216DAVISVP2,2013-12-10 03:10:00,
2013-12-09 21:15:00,33.1,31.8,30.35,NW,311,3.0,5.0,95,0.00,,,0.12,WUHU216DAVISVP2,2013-12-10 03:15:00,
2013-12-09 21:20:00,32.9,31.6,30.35,NNW,336,1.0,5.0,95,0.00,,,0.12,WUHU216DAVISVP2,2013-12-10 03:20:00,
2013-12-09 21:25:00,33.1,32.0,30.35,West,270,0.0,5.0,96,0.00,,,0.12,WUHU216DAVISVP2,2013-12-10 03:25:00,
2013-12-09 21:30:00,33.1,32.0,30.35,WNW,302,1.0,5.0,96,0.00,,,0.12,WUHU216DAVISVP2,2013-12-10 03:30:00,
2013-12-09 21:35:00,33.0,31.9,30.35,NNW,348,1.0,7.0,96,0.00,,,0.12,WUHU216DAVISVP2,2013-12-10 03:35:00,
2013-12-09 21:40:00,32.7,31.4,30.36,West,281,1.0,7.0,95,0.00,,,0.12,WUHU216DAVISVP2,2013-12-10 03:40:00,
2013-12-09 21:45:00,32.6,31.3,30.36,NNW,330,4.0,7.0,95,0.00,,,0.12,WUHU216DAVISVP2,2013-12-10 03:45:00,
2013-12-09 21:50:00,32.4,30.9,30.36,NNW,328,0.0,7.0,94,0.00,,,0.12,WUHU216DAVISVP2,2013-12-10 03:50:00,
2013-12-09 21:55:00,32.3,31.0,30.36,North,6,1.0,7.0,95,0.00,,,0.12,WUHU216DAVISVP2,2013-12-10 03:55:00,
2013-12-09 22:00:00,32.3,31.0,30.37,West,280,1.0,7.0,95,0.00,,,0.12,WUHU216DAVISVP2,2013-12-10 04:00:00,
2013-12-09 22:05:00,32.2,30.9,30.37,West,275,2.0,5.0,95,0.00,,,0.12,WUHU216DAVISVP2,2013-12-10 04:05:00,
2013-12-09 22:10:00,32.2,30.9,30.37,NNE,12,0.0,4.0,95,0.00,,,0.12,WUHU216DAVISVP2,2013-12-10 04:10:00,
2013-12-09 22:15:00,32.1,30.5,30.37,WNW,300,0.0,5.0,94,0.00,,,0.12,WUHU216DAVISVP2,2013-12-10 04:15:00,
2013-12-09 22:20:00,32.0,30.4,30.37,NNE,18,1.0,5.0,94,0.00,,,0.12,WUHU216DAVISVP2,2013-12-10 04:20:00,
2013-12-09 22:25:00,32.0,30.7,30.37,WNW,290,1.0,6.0,95,0.00,,,0.12,WUHU216DAVISVP2,2013-12-10 04:25:00,
2013-12-09 22:30:00,32.1,30.8,30.38,WNW,303,3.0,6.0,95,0.00,,,0.12,WUHU216DAVISVP2,2013-12-10 04:30:00,
2013-12-09 22:35:00,32.1,30.5,30.38,WNW,285,1.0,5.0,94,0.00,,,0.12,WUHU216DAVISVP2,2013-12-10 04:35:00,
2013-12-09 22:40:00,32.1,30.8,30.38,WNW,294,0.0,5.0,95,0.00,,,0.12,WUHU216DAVISVP2,2013-12-10 04:40:00,
2013-12-09 22:45:00,32.1,30.5,30.39,WNW,295,2.0,6.0,94,0.00,,,0.12,WUHU216DAVISVP2,2013-12-10 04:45:00,
2013-12-09 22:50:00,32.0,30.4,30.39,West,277,5.0,7.0,94,0.00,,,0.12,WUHU216DAVISVP2,2013-12-10 04:50:00,
2013-12-09 22:55:00,32.0,30.7,30.39,WNW,294,4.0,7.0,95,0.00,,,0.12,WUHU216DAVISVP2,2013-12-10 04:55:00,
2013-12-09 23:00:00,31.9,30.3,30.39,NNW,345,4.0,9.0,94,0.00,,,0.12,WUHU216DAVISVP2,2013-12-10 05:00:00,
2013-12-09 23:05:00,31.8,30.5,30.39,NW,304,1.0,9.0,95,0.00,,,0.12,WUHU216DAVISVP2,2013-12-10 05:05:00,
2013-12-09 23:10:00,31.6,30.3,30.40,SW,231,3.0,8.0,95,0.00,,,0.12,WUHU216DAVISVP2,2013-12-10 05:10:00,
2013-12-09 23:15:00,31.4,30.1,30.40,WNW,287,4.0,9.0,95,0.00,,,0.12,WUHU216DAVISVP2,2013-12-10 05:15:00,
2013-12-09 23:20:00,31.2,29.9,30.40,WNW,290,4.0,9.0,95,0.00,,,0.12,WUHU216DAVISVP2,2013-12-10 05:20:00,
2013-12-09 23:25:00,31.0,29.7,30.40,WNW,292,2.0,9.0,95,0.00,,,0.12,WUHU216DAVISVP2,2013-12-10 05:25:00,
2013-12-09 23:30:00,30.8,29.5,30.40,WNW,298,1.0,9.0,95,0.00,,,0.12,WUHU216DAVISVP2,2013-12-10 05:30:00,
2013-12-09 23:35:00,30.7,29.4,30.41,NNW,334,2.0,9.0,95,0.00,,,0.12,WUHU216DAVISVP2,2013-12-10 05:35:00,
2013-12-09 23:40:00,30.6,29.3,30.40,WNW,297,1.0,9.0,95,0.00,,,0.12,WUHU216DAVISVP2,2013-12-10 05:40:00,
2013-12-09 23:45:00,30.6,29.3,30.40,NW,307,4.0,9.0,95,0.00,,,0.12,WUHU216DAVISVP2,2013-12-10 05:45:00,
2013-12-09 23:50:00,30.6,29.3,30.41,WNW,293,1.0,6.0,95,0.00,,,0.12,WUHU216DAVISVP2,2013-12-10 05:50:00,
2013-12-09 23:55:00,30.7,29.4,30.41,WNW,302,3.0,6.0,95,0.00,,,0.12,WUHU216DAVISVP2,2013-12-10 05:55:00,